createdAt,value
2023-04-03T00:02:00.005Z,49.08
2023-04-03T00:04:29.976Z,57.22
2023-04-03T00:06:59.685Z,58.13
2023-04-03T00:09:29.503Z,54.38
2023-04-03T00:11:59.107Z,46.47
2023-04-03T00:14:30.208Z,44.30
2023-04-03T00:17:00.039Z,41.65
2023-04-03T00:19:29.705Z,42.45
2023-04-03T00:21:59.374Z,42.33
2023-04-03T00:24:29.122Z,43.05
2023-04-03T00:26:58.686Z,40.15
2023-04-03T00:29:28.188Z,42.40
2023-04-03T00:31:57.827Z,40.63
2023-04-03T00:34:27.462Z,39.92
2023-04-03T00:36:57.884Z,38.00
2023-04-03T00:39:28.203Z,39.63
2023-04-03T00:41:58.005Z,36.30
2023-04-03T00:45:06.745Z,37.63
2023-04-03T00:47:36.429Z,35.53
2023-04-03T00:50:06.990Z,36.35
2023-04-03T00:52:36.775Z,36.38
2023-04-03T00:55:10.702Z,36.83
2023-04-03T00:57:41.627Z,35.40
2023-04-03T01:00:15.474Z,38.22
2023-04-03T01:02:45.435Z,37.80
2023-04-03T01:05:17.039Z,37.15
2023-04-03T01:07:48.219Z,37.88
2023-04-03T01:10:20.762Z,37.90
2023-04-03T01:12:53.253Z,37.65
2023-04-03T01:15:26.557Z,38.00
2023-04-03T01:17:59.243Z,35.92
2023-04-03T01:20:56.728Z,37.17
2023-04-03T01:23:53.666Z,35.70
2023-04-03T01:26:23.892Z,35.60
2023-04-03T01:28:53.558Z,35.72
2023-04-03T01:31:48.593Z,36.15
2023-04-03T01:34:18.413Z,33.85
2023-04-03T01:36:48.191Z,36.28
2023-04-03T01:39:18.498Z,35.88
2023-04-03T01:41:48.350Z,36.85
2023-04-03T01:44:18.304Z,35.05
2023-04-03T01:46:47.949Z,36.05
2023-04-03T01:49:17.686Z,34.17
2023-04-03T01:51:47.412Z,35.97
2023-04-03T01:54:17.199Z,36.08
2023-04-03T01:56:46.973Z,36.33
2023-04-03T01:59:19.606Z,35.47
2023-04-03T02:01:49.393Z,34.83
2023-04-03T02:04:19.264Z,35.03
2023-04-03T02:06:48.952Z,35.55
2023-04-03T02:09:18.555Z,35.13
2023-04-03T02:11:48.267Z,33.40
2023-04-03T02:14:18.035Z,35.28
2023-04-03T02:16:47.965Z,33.70
2023-04-03T02:19:17.706Z,34.95
2023-04-03T02:21:47.837Z,35.13
2023-04-03T02:24:17.736Z,34.60
2023-04-03T02:26:47.491Z,36.63
2023-04-03T02:29:17.367Z,35.13
2023-04-03T02:31:47.252Z,34.75
2023-04-03T02:34:16.913Z,32.60
2023-04-03T02:36:46.975Z,34.90
2023-04-03T02:39:16.686Z,33.17
2023-04-03T02:41:46.811Z,32.70
2023-04-03T02:44:17.293Z,33.33
2023-04-03T02:46:46.932Z,34.63
2023-04-03T02:49:16.604Z,34.97
2023-04-03T02:51:46.313Z,36.50
2023-04-03T02:54:16.217Z,33.95
2023-04-03T02:56:45.922Z,33.72
2023-04-03T02:59:15.591Z,34.13
2023-04-03T03:01:45.284Z,34.13
2023-04-03T03:04:15.330Z,34.60
2023-04-03T03:06:45.166Z,34.63
2023-04-03T03:09:15.768Z,33.70
2023-04-03T03:11:45.441Z,35.53
2023-04-03T03:14:15.187Z,31.48
2023-04-03T03:16:44.831Z,30.90
2023-04-03T03:19:14.676Z,31.60
2023-04-03T03:21:44.406Z,31.77
2023-04-03T03:24:14.785Z,32.30
2023-04-03T03:26:44.686Z,33.10
2023-04-03T03:29:14.380Z,32.47
2023-04-03T03:31:44.036Z,31.52
2023-04-03T03:34:14.560Z,31.50
2023-04-03T03:36:44.157Z,32.72
2023-04-03T03:39:13.990Z,32.05
2023-04-03T03:41:43.736Z,30.98
2023-04-03T03:44:14.896Z,31.48
2023-04-03T03:46:45.290Z,30.92
2023-04-03T03:49:15.241Z,29.98
2023-04-03T03:51:44.969Z,30.77
2023-04-03T03:54:14.727Z,29.33
2023-04-03T03:56:44.330Z,30.77
2023-04-03T03:59:15.567Z,28.95
2023-04-03T04:01:45.396Z,30.60
2023-04-03T04:04:15.129Z,29.23
2023-04-03T04:06:44.931Z,29.55
2023-04-03T04:09:14.628Z,26.80
2023-04-03T04:11:44.259Z,26.02
2023-04-03T04:14:16.030Z,27.05
2023-04-03T04:16:45.777Z,27.13
2023-04-03T04:19:15.565Z,27.80
2023-04-03T04:21:45.357Z,27.55
2023-04-03T04:24:15.010Z,26.13
2023-04-03T04:26:44.657Z,27.27
2023-04-03T04:29:14.405Z,27.58
2023-04-03T04:31:44.044Z,26.42
2023-04-03T04:34:15.479Z,26.90
2023-04-03T04:36:45.603Z,26.80
2023-04-03T04:39:15.258Z,28.40
2023-04-03T04:41:44.939Z,28.48
2023-04-03T04:44:14.725Z,26.27
2023-04-03T04:46:44.303Z,27.95
2023-04-03T04:49:14.182Z,26.58
2023-04-03T04:51:51.525Z,26.73
2023-04-03T04:54:21.906Z,27.42
2023-04-03T04:56:51.703Z,26.65
2023-04-03T04:59:22.036Z,27.70
2023-04-03T05:01:51.966Z,27.33
2023-04-03T05:04:21.880Z,26.95
2023-04-03T05:06:51.727Z,27.20
2023-04-03T05:09:22.722Z,26.40
2023-04-03T05:11:52.579Z,26.02
2023-04-03T05:14:22.181Z,26.52
2023-04-03T05:16:55.487Z,26.73
2023-04-03T05:19:25.198Z,25.88
2023-04-03T05:21:55.132Z,26.70
2023-04-03T05:24:24.988Z,26.70
2023-04-03T05:26:54.704Z,26.90
2023-04-03T05:29:25.226Z,27.52
2023-04-03T05:31:55.195Z,27.50
2023-04-03T05:34:25.078Z,26.92
2023-04-03T05:36:54.872Z,27.77
2023-04-03T05:39:25.676Z,26.95
2023-04-03T05:41:55.317Z,27.58
2023-04-03T05:44:24.938Z,28.65
2023-04-03T05:46:54.674Z,26.52
2023-04-03T05:49:47.318Z,26.73
2023-04-03T05:52:32.123Z,26.52
2023-04-03T05:55:01.872Z,27.02
2023-04-03T05:57:31.706Z,28.42
2023-04-03T06:00:01.534Z,29.35
2023-04-03T06:02:31.429Z,26.92
2023-04-03T06:05:01.008Z,25.70
2023-04-03T06:07:31.201Z,27.58
2023-04-03T06:10:01.104Z,28.90
2023-04-03T06:12:32.525Z,28.85
2023-04-03T06:15:02.391Z,28.88
2023-04-03T06:17:48.618Z,29.35
2023-04-03T06:20:18.750Z,28.85
2023-04-03T06:22:48.659Z,30.33
2023-04-03T06:25:20.549Z,30.25
2023-04-03T06:27:50.428Z,29.27
2023-04-03T06:30:20.277Z,30.35
2023-04-03T06:32:50.019Z,29.35
2023-04-03T06:35:19.951Z,30.00
2023-04-03T06:37:49.798Z,29.75
2023-04-03T06:40:24.976Z,29.17
2023-04-03T06:42:54.637Z,30.38
2023-04-03T06:45:25.280Z,30.48
2023-04-03T06:47:54.992Z,30.83
2023-04-03T06:50:24.847Z,30.08
2023-04-03T06:52:54.499Z,28.73
2023-04-03T06:55:24.354Z,30.55
2023-04-03T06:57:54.630Z,29.80
2023-04-03T07:00:24.609Z,29.65
2023-04-03T07:02:54.583Z,28.80
2023-04-03T07:05:24.238Z,28.30
2023-04-03T07:07:54.324Z,28.75
2023-04-03T07:10:24.125Z,29.77
2023-04-03T07:12:53.741Z,29.92
2023-04-03T07:15:23.446Z,27.95
2023-04-03T07:17:53.099Z,27.33
2023-04-03T07:20:23.084Z,25.90
2023-04-03T07:22:53.264Z,28.27
2023-04-03T07:25:23.155Z,25.83
2023-04-03T07:27:52.928Z,26.83
2023-04-03T07:30:22.684Z,25.63
2023-04-03T07:32:52.910Z,26.67
2023-04-03T07:35:22.687Z,25.77
2023-04-03T07:37:52.913Z,25.73
2023-04-03T07:40:22.991Z,25.65
2023-04-03T07:42:52.875Z,22.50
2023-04-03T07:45:22.598Z,20.88
2023-04-03T07:47:53.179Z,19.13
2023-04-03T07:50:23.009Z,17.85
2023-04-03T07:52:53.613Z,17.13
2023-04-03T07:55:23.416Z,15.30
2023-04-03T07:57:53.323Z,15.23
2023-04-03T08:03:11.361Z,16.25
2023-04-03T08:05:44.104Z,15.98
2023-04-03T08:08:16.105Z,17.00
2023-04-03T08:10:46.230Z,17.50
2023-04-03T08:13:15.790Z,18.48
2023-04-03T08:15:46.291Z,19.50
2023-04-03T08:18:17.542Z,18.55
2023-04-03T08:20:47.581Z,19.67
2023-04-03T08:23:19.875Z,19.80
2023-04-03T08:25:49.771Z,19.92
2023-04-03T08:28:19.417Z,19.58
2023-04-03T08:30:49.161Z,20.85
2023-04-03T08:33:19.085Z,19.63
2023-04-03T08:35:48.764Z,19.73
2023-04-03T08:38:18.287Z,20.05
2023-04-03T08:40:48.020Z,19.48
2023-04-03T08:43:55.720Z,18.88
2023-04-03T08:46:29.559Z,19.45
2023-04-03T08:49:02.441Z,19.92
2023-04-03T08:51:33.171Z,21.20
2023-04-03T08:54:08.266Z,20.48
2023-04-03T08:56:39.147Z,20.23
2023-04-03T08:59:15.854Z,19.67
2023-04-03T09:01:46.263Z,20.10
2023-04-03T09:04:21.026Z,20.88
2023-04-03T09:06:58.816Z,21.67
2023-04-03T09:09:37.283Z,23.13
2023-04-03T09:12:40.945Z,21.48
2023-04-03T09:15:31.410Z,21.73
2023-04-03T09:21:13.278Z,21.65
2023-04-03T09:24:04.338Z,21.25
2023-04-03T09:27:02.421Z,21.55
2023-04-03T09:29:32.701Z,22.27
2023-04-03T09:32:19.077Z,22.30
2023-04-03T09:34:50.623Z,21.65
2023-04-03T09:37:44.342Z,21.85
2023-04-03T09:40:37.669Z,22.65
2023-04-03T09:43:31.761Z,22.40
2023-04-03T09:46:42.178Z,21.77
2023-04-03T09:49:15.449Z,21.98
2023-04-03T09:51:46.431Z,22.73
2023-04-03T09:54:35.861Z,24.52
2023-04-03T09:57:15.728Z,23.38
2023-04-03T09:59:50.744Z,23.15
2023-04-03T10:02:41.865Z,24.75
2023-04-03T10:05:41.763Z,24.17
2023-04-03T10:08:32.779Z,23.63
2023-04-03T10:11:22.002Z,24.42
2023-04-03T10:13:57.844Z,23.67
2023-04-03T10:16:51.775Z,23.55
2023-04-03T10:19:45.242Z,21.75
2023-04-03T10:22:48.333Z,21.50
2023-04-03T10:25:46.678Z,21.52
2023-04-03T10:28:55.445Z,20.55
2023-04-03T10:32:04.333Z,20.52
2023-04-03T10:34:42.302Z,19.95
2023-04-03T10:37:52.208Z,20.15
2023-04-03T10:41:00.930Z,21.92
2023-04-03T10:43:46.018Z,20.10
2023-04-03T10:46:31.332Z,20.20
2023-04-03T10:49:28.097Z,21.85
2023-04-03T10:52:23.500Z,23.05
2023-04-03T10:55:25.394Z,20.58
2023-04-03T10:57:59.827Z,25.15
2023-04-03T11:00:51.412Z,23.42
2023-04-03T11:03:43.711Z,20.60
2023-04-03T11:06:17.451Z,21.73
2023-04-03T11:09:27.000Z,22.08
2023-04-03T11:12:15.903Z,20.25
2023-04-03T11:14:45.827Z,20.80
2023-04-03T11:17:49.179Z,22.75
2023-04-03T11:20:30.110Z,22.02
2023-04-03T11:23:25.493Z,21.65
2023-04-03T11:26:00.024Z,21.92
2023-04-03T11:28:29.671Z,21.08
2023-04-03T11:31:38.394Z,21.45
2023-04-03T11:34:47.427Z,22.33
2023-04-03T11:37:38.306Z,22.05
2023-04-03T11:40:21.377Z,23.65
2023-04-03T11:42:54.996Z,23.83
2023-04-03T11:45:57.650Z,21.60
2023-04-03T11:48:48.861Z,20.55
2023-04-03T11:51:42.071Z,20.63
2023-04-03T11:54:47.332Z,21.55
2023-04-03T11:57:48.675Z,21.17
2023-04-03T12:00:54.308Z,20.80
2023-04-03T12:03:55.195Z,19.90
2023-04-03T12:06:46.030Z,20.85
2023-04-03T12:09:31.971Z,21.38
2023-04-03T12:12:04.509Z,21.33
2023-04-03T12:14:34.275Z,21.73
2023-04-03T12:17:04.292Z,21.20
2023-04-03T12:22:17.201Z,21.50
2023-04-03T12:24:51.245Z,20.98
2023-04-03T12:27:45.454Z,22.15
2023-04-03T12:30:34.658Z,28.02
2023-04-03T12:33:33.505Z,22.58
2023-04-03T12:36:29.602Z,22.52
2023-04-03T12:39:13.745Z,23.33
2023-04-03T12:42:02.250Z,22.70
2023-04-03T12:45:07.404Z,23.35
2023-04-03T12:47:40.780Z,22.55
2023-04-03T12:50:30.303Z,23.42
2023-04-03T12:53:06.975Z,22.20
2023-04-03T12:55:37.740Z,24.20
2023-04-03T12:58:29.294Z,29.52
2023-04-03T13:01:15.116Z,32.22
2023-04-03T13:03:50.228Z,31.27
2023-04-03T13:06:44.654Z,35.72
2023-04-03T13:09:35.230Z,29.20
2023-04-03T13:12:15.980Z,30.17
2023-04-03T13:15:00.534Z,26.40
2023-04-03T13:17:30.630Z,26.90
2023-04-03T13:20:32.522Z,26.88
2023-04-03T13:23:11.381Z,28.05
2023-04-03T13:25:46.751Z,26.23
2023-04-03T13:28:22.674Z,28.10
2023-04-03T13:31:05.735Z,28.08
2023-04-03T13:33:40.485Z,27.23
2023-04-03T13:36:33.721Z,28.25
2023-04-03T13:39:27.749Z,27.58
2023-04-03T13:42:17.328Z,28.75
2023-04-03T13:44:47.124Z,27.42
2023-04-03T13:47:25.448Z,27.70
2023-04-03T13:50:18.224Z,29.38
2023-04-03T13:53:12.085Z,28.95
2023-04-03T13:56:00.386Z,28.70
2023-04-03T13:58:33.731Z,28.90
2023-04-03T14:01:24.512Z,31.25
2023-04-03T14:04:03.648Z,29.55
2023-04-03T14:06:33.349Z,29.77
2023-04-03T14:09:03.065Z,29.50
2023-04-03T14:11:35.158Z,28.95
2023-04-03T14:14:12.708Z,29.77
2023-04-03T14:16:45.528Z,31.08
2023-04-03T14:19:23.497Z,28.88
2023-04-03T14:21:54.036Z,28.15
2023-04-03T14:24:24.687Z,28.85
2023-04-03T14:26:57.162Z,28.90
2023-04-03T14:29:27.414Z,29.35
2023-04-03T14:32:11.407Z,29.25
2023-04-03T14:34:45.489Z,32.22
2023-04-03T14:37:23.911Z,33.13
2023-04-03T14:39:56.098Z,33.58
2023-04-03T14:42:33.519Z,32.33
2023-04-03T14:45:05.174Z,40.50
2023-04-03T14:47:35.421Z,37.58
2023-04-03T14:50:07.654Z,35.00
2023-04-03T14:52:41.109Z,38.45
2023-04-03T14:55:11.643Z,42.42
2023-04-03T14:57:43.143Z,38.50
2023-04-03T15:00:22.256Z,36.67
2023-04-03T15:02:52.771Z,35.35
2023-04-03T15:05:22.740Z,35.28
2023-04-03T15:07:58.071Z,37.47
2023-04-03T15:10:30.694Z,36.85
2023-04-03T15:13:00.618Z,36.40
2023-04-03T15:15:33.004Z,36.45
2023-04-03T15:18:02.990Z,32.35
2023-04-03T15:20:33.658Z,33.50
2023-04-03T15:23:04.188Z,33.28
2023-04-03T15:25:34.571Z,33.03
2023-04-03T15:28:04.393Z,32.35
2023-04-03T15:30:34.263Z,32.40
2023-04-03T15:33:04.088Z,32.00
2023-04-03T15:35:33.736Z,32.70
2023-04-03T15:38:03.448Z,32.28
2023-04-03T15:40:33.202Z,34.42
2023-04-03T15:43:02.877Z,34.15
2023-04-03T15:45:33.945Z,36.10
2023-04-03T15:48:04.387Z,33.33
2023-04-03T15:50:35.621Z,36.42
2023-04-03T15:53:05.607Z,33.90
2023-04-03T15:55:38.192Z,34.00
2023-04-03T15:58:08.969Z,34.08
2023-04-03T16:00:39.980Z,34.63
2023-04-03T16:03:15.696Z,33.88
2023-04-03T16:10:26.057Z,35.25
2023-04-03T16:12:55.829Z,37.00
2023-04-03T16:15:27.042Z,34.97
2023-04-03T16:17:57.609Z,34.58
2023-04-03T16:20:27.463Z,35.30
2023-04-03T16:22:59.489Z,39.08
2023-04-03T16:25:29.628Z,34.97
2023-04-03T16:27:59.216Z,35.42
2023-04-03T16:30:29.415Z,34.78
2023-04-03T16:33:00.263Z,34.60
2023-04-03T16:35:30.040Z,40.53
2023-04-03T16:37:59.642Z,41.97
2023-04-03T16:40:29.411Z,39.65
2023-04-03T16:42:58.947Z,40.58
2023-04-03T16:45:28.670Z,39.33
2023-04-03T16:47:58.428Z,37.40
2023-04-03T16:50:28.018Z,37.20
2023-04-03T16:52:57.732Z,37.08
2023-04-03T16:55:27.484Z,36.97
2023-04-03T16:57:57.968Z,36.30
2023-04-03T17:00:28.379Z,33.80
2023-04-03T17:02:58.236Z,35.47
2023-04-03T17:05:27.983Z,33.80
2023-04-03T17:07:57.786Z,35.25
2023-04-03T17:10:28.009Z,34.70
2023-04-03T17:12:57.838Z,37.00
2023-04-03T17:15:28.607Z,34.58
2023-04-03T17:17:58.327Z,33.47
2023-04-03T17:20:28.367Z,34.17
2023-04-03T17:22:58.155Z,35.00
2023-04-03T17:25:27.819Z,34.83
2023-04-03T17:27:57.557Z,36.72
2023-04-03T17:30:27.362Z,37.40
2023-04-03T17:32:57.086Z,37.30
2023-04-03T17:35:26.725Z,35.45
2023-04-03T17:37:56.389Z,35.78
2023-04-03T17:40:26.009Z,36.50
2023-04-03T17:42:56.951Z,38.13
2023-04-03T17:45:26.626Z,41.58
2023-04-03T17:47:56.362Z,38.67
2023-04-03T17:50:26.050Z,38.42
2023-04-03T17:52:55.838Z,38.20
2023-04-03T17:55:25.915Z,35.70
2023-04-03T17:57:55.524Z,34.67
2023-04-03T18:00:25.228Z,34.97
2023-04-03T18:02:56.981Z,34.85
2023-04-03T18:05:31.243Z,37.03
2023-04-03T18:08:02.050Z,36.17
2023-04-03T18:10:31.994Z,34.30
2023-04-03T18:13:01.768Z,37.15
2023-04-03T18:15:31.420Z,36.00
2023-04-03T18:18:01.131Z,34.67
2023-04-03T18:20:30.917Z,32.97
2023-04-03T18:23:01.240Z,35.30
2023-04-03T18:28:01.893Z,35.03
2023-04-03T18:30:31.511Z,33.95
2023-04-03T18:33:01.228Z,32.95
2023-04-03T18:35:31.175Z,36.25
2023-04-03T18:38:00.885Z,32.90
2023-04-03T18:40:30.549Z,33.58
2023-04-03T18:43:00.325Z,37.17
2023-04-03T18:45:30.224Z,33.35
2023-04-03T18:48:00.075Z,32.53
2023-04-03T18:50:30.819Z,33.58
2023-04-03T18:53:00.494Z,33.47
2023-04-03T18:55:30.179Z,33.40
2023-04-03T18:57:59.817Z,34.55
2023-04-03T19:00:29.893Z,34.75
2023-04-03T19:03:00.695Z,36.65
2023-04-03T19:05:30.547Z,34.55
2023-04-03T19:08:00.868Z,35.05
2023-04-03T19:10:30.607Z,35.75
2023-04-03T19:13:00.174Z,33.65
2023-04-03T19:15:30.116Z,34.05
2023-04-03T19:17:59.979Z,34.80
2023-04-03T19:20:29.795Z,34.50
2023-04-03T19:22:59.475Z,33.10
2023-04-03T19:25:29.223Z,33.72
2023-04-03T19:27:58.778Z,34.60
2023-04-03T19:30:28.477Z,34.67
2023-04-03T19:32:58.407Z,35.30
2023-04-03T19:35:28.322Z,35.03
2023-04-03T19:37:57.916Z,35.38
2023-04-03T19:40:27.869Z,36.60
2023-04-03T19:42:57.445Z,33.92
2023-04-03T19:45:28.090Z,34.83
2023-04-03T19:48:01.037Z,37.58
2023-04-03T19:50:30.699Z,35.67
2023-04-03T19:53:00.569Z,34.35
2023-04-03T19:55:33.024Z,33.25
2023-04-03T19:58:04.031Z,36.22
2023-04-03T20:00:33.796Z,34.90
2023-04-03T20:03:04.172Z,34.92
2023-04-03T20:05:34.120Z,36.75
2023-04-03T20:08:04.030Z,36.90
2023-04-03T20:10:33.728Z,37.55
2023-04-03T20:13:03.350Z,36.35
2023-04-03T20:15:41.874Z,36.65
2023-04-03T20:18:17.141Z,37.30
2023-04-03T20:20:54.219Z,39.03
2023-04-03T20:23:24.627Z,40.93
2023-04-03T20:26:08.682Z,41.45
2023-04-03T20:28:39.962Z,41.67
2023-04-03T20:42:48.218Z,37.97
2023-04-03T20:57:09.258Z,37.90
2023-04-03T21:41:36.183Z,41.88
2023-04-03T21:44:06.344Z,41.28
2023-04-03T21:46:35.982Z,40.97
2023-04-03T21:49:06.282Z,38.47
2023-04-03T21:51:37.173Z,41.97
2023-04-03T21:54:06.883Z,40.55
2023-04-03T21:56:36.553Z,41.15
2023-04-03T21:59:06.831Z,43.80
2023-04-03T22:01:36.480Z,40.50
2023-04-03T22:04:06.450Z,40.13
2023-04-03T22:06:36.051Z,40.35
2023-04-03T23:16:37.912Z,46.70
